»·PEaware :: SWA3 KLAX-KDEN

SWA3 :: KLAX-KDEN

FLIGHT INFORMATION

Flight Status: Arrived
Operator:
Southwest Airlines
More flights by this operator :: More flights under this callsign
Pilot: Maximilliano F. (23467)
Aircraft: BOEING 737-800
(B738)
More flights by this aircraft type
Origin: KLAX Los Angeles Intl
United States
Destination: KDEN Denver Intl
United States
More flights between these airports :: More routes between these airports
Route: +ORCKA3 LAS J146 DVC WOLLF CREDE3
File this flight plan on PilotEdge
Remarks: RMK / SIMBRIEF
Altitude:
(Current/Filed)
35,000ft
Speed:
(Current/Filed)
463kts
Departed: 01-Nov-19 08:02 PM
Arrived: 01-Nov-19 10:00 PM
Distance/Time
Traveled:
747nm/1:58
Distance/Time
To Go:
Arrived

Flight Plot

Page will automatically refresh every two minutes.

Flight plan parsing failed; only flown route is shown


Map Options




Map Legend


Flown Route
Filed Route
Departure Airport
Arrival Airport
Navaid (VOR, NDB)
Fix

Horizontal Profiles

Position Reports

Time Latitude Longitude Heading Altitude Ground
Speed
01-Nov-19 19:28 33.946934 -118.400612 262 121ft 0kts
01-Nov-19 19:29 33.946934 -118.400612 262 121ft 0kts
01-Nov-19 19:30 33.946934 -118.400612 262 121ft 0kts
01-Nov-19 19:31 33.946934 -118.400612 262 121ft 0kts
01-Nov-19 19:32 33.946934 -118.400612 262 121ft 0kts
01-Nov-19 19:34 33.946934 -118.400612 262 121ft 0kts
01-Nov-19 19:35 33.946934 -118.400612 262 121ft 0kts
01-Nov-19 19:36 33.946934 -118.400612 262 121ft 0kts
01-Nov-19 19:37 33.946934 -118.400612 262 121ft 0kts
01-Nov-19 19:38 33.946934 -118.400612 262 121ft 0kts
01-Nov-19 19:39 33.946934 -118.400612 262 121ft 0kts
01-Nov-19 19:40 33.946934 -118.400612 262 121ft 0kts
01-Nov-19 19:41 33.946934 -118.400612 262 121ft 0kts
01-Nov-19 19:42 33.946934 -118.400612 262 121ft 0kts
01-Nov-19 19:43 33.946934 -118.400612 262 121ft 0kts
01-Nov-19 19:44 33.946934 -118.400612 262 121ft 0kts
01-Nov-19 19:45 33.946934 -118.400612 262 121ft 0kts
01-Nov-19 19:46 33.946934 -118.400612 262 121ft 0kts
01-Nov-19 19:47 33.946943 -118.400519 265 121ft 2kts
01-Nov-19 19:48 33.946704 -118.400084 0 121ft 1kts
01-Nov-19 19:49 33.946676 -118.400084 357 121ft 0kts
01-Nov-19 19:50 33.946676 -118.400084 357 121ft 0kts
01-Nov-19 19:51 33.946676 -118.400084 357 121ft 0kts
01-Nov-19 19:51 33.946676 -118.400084 357 121ft 0kts
01-Nov-19 19:53 33.946677 -118.400084 357 121ft 0kts
01-Nov-19 19:54 33.948101 -118.400052 356 119ft 1kts
01-Nov-19 19:54 33.948218 -118.400081 340 119ft 2kts
01-Nov-19 19:55 33.948783 -118.400810 353 120ft 4kts
01-Nov-19 19:57 33.949498 -118.399246 40 117ft 0kts
01-Nov-19 19:57 33.949498 -118.399246 40 117ft 0kts
01-Nov-19 19:58 33.949498 -118.399246 40 117ft 0kts
01-Nov-19 20:00 33.949498 -118.399246 40 117ft 0kts
01-Nov-19 20:00 33.950117 -118.399148 343 117ft 7kts
01-Nov-19 20:01 33.948661 -118.416668 262 125ft 158kts
01-Nov-19 20:02 33.942790 -118.476966 263 1977ft 216kts
01-Nov-19 20:03 33.933749 -118.560150 263 4364ft 267kts
01-Nov-19 20:04 33.892950 -118.624197 169 7259ft 273kts
01-Nov-19 20:05 33.873450 -118.552702 64 10034ft 281kts
01-Nov-19 20:06 33.917042 -118.463752 61 12026ft 321kts
01-Nov-19 20:07 33.966214 -118.373927 57 14618ft 336kts
01-Nov-19 20:08 34.017562 -118.283569 57 17088ft 348kts
01-Nov-19 20:09 34.071436 -118.188500 57 19317ft 363kts
01-Nov-19 20:10 34.121813 -118.099435 57 21184ft 375kts
01-Nov-19 20:11 34.182630 -117.991429 56 23048ft 392kts
01-Nov-19 20:12 34.243855 -117.882543 56 23118ft 387kts
01-Nov-19 20:13 34.304885 -117.773653 56 23614ft 392kts
01-Nov-19 20:14 34.367248 -117.663279 55 25461ft 402kts
01-Nov-19 20:15 34.433785 -117.552532 55 27159ft 411kts
01-Nov-19 20:16 34.501466 -117.438899 55 28723ft 419kts
01-Nov-19 20:17 34.570281 -117.322988 56 30187ft 426kts
01-Nov-19 20:18 34.640579 -117.204219 55 31570ft 432kts
01-Nov-19 20:19 34.709020 -117.088206 55 33189ft 428kts
01-Nov-19 20:20 34.778128 -116.970672 55 34625ft 426kts
01-Nov-19 20:21 34.847471 -116.852342 55 35262ft 440kts
01-Nov-19 20:22 34.918661 -116.731095 52 35245ft 438kts
01-Nov-19 20:23 35.000806 -116.621292 48 35246ft 440kts
01-Nov-19 20:24 35.083806 -116.511891 48 35246ft 438kts
01-Nov-19 20:25 35.164005 -116.405822 48 35244ft 437kts
01-Nov-19 20:26 35.245005 -116.298344 48 35247ft 436kts
01-Nov-19 20:27 35.326653 -116.189669 48 35247ft 434kts
01-Nov-19 20:28 35.408278 -116.080679 48 35246ft 433kts
01-Nov-19 20:29 35.489457 -115.971934 48 35260ft 433kts
01-Nov-19 20:30 35.570883 -115.862513 48 35273ft 434kts
01-Nov-19 20:31 35.651492 -115.753362 49 35273ft 433kts
01-Nov-19 20:32 35.731653 -115.642581 49 35273ft 433kts
01-Nov-19 20:33 35.811567 -115.532459 49 35272ft 433kts
01-Nov-19 20:34 35.891934 -115.421331 49 35267ft 434kts
01-Nov-19 20:35 35.971534 -115.310889 49 35261ft 435kts
01-Nov-19 20:36 36.051879 -115.198981 50 35255ft 431kts
01-Nov-19 20:37 36.107600 -115.070258 68 35266ft 433kts
01-Nov-19 20:38 36.150347 -114.931044 68 35274ft 433kts
01-Nov-19 20:39 36.193245 -114.791207 68 35274ft 435kts
01-Nov-19 20:40 36.235906 -114.651725 68 35274ft 434kts
01-Nov-19 20:41 36.278737 -114.511267 68 35274ft 436kts
01-Nov-19 20:42 36.321319 -114.370927 68 35273ft 435kts
01-Nov-19 20:43 36.363159 -114.232317 69 35275ft 436kts
01-Nov-19 20:44 36.405479 -114.091463 69 35314ft 435kts
01-Nov-19 20:45 36.447562 -113.950694 69 35347ft 437kts
01-Nov-19 20:46 36.489746 -113.808884 68 35346ft 438kts
01-Nov-19 20:47 36.531726 -113.667037 68 35342ft 439kts
01-Nov-19 20:48 36.573756 -113.524300 68 35337ft 440kts
01-Nov-19 20:49 36.615685 -113.381177 68 35332ft 441kts
01-Nov-19 20:50 36.656405 -113.238955 68 35329ft 443kts
01-Nov-19 20:51 36.698150 -113.094730 68 35328ft 444kts
01-Nov-19 20:52 36.739979 -112.949464 68 35349ft 445kts
01-Nov-19 20:53 36.781585 -112.804205 68 35394ft 447kts
01-Nov-19 20:54 36.823248 -112.657967 68 35401ft 447kts
01-Nov-19 20:55 36.864674 -112.511771 68 35402ft 448kts
01-Nov-19 20:56 36.905761 -112.364520 68 35402ft 449kts
01-Nov-19 20:57 36.946668 -112.218279 68 35400ft 449kts
01-Nov-19 20:58 36.987839 -112.070777 68 35400ft 450kts
01-Nov-19 20:59 37.029021 -111.922430 68 35409ft 455kts
01-Nov-19 21:00 37.070395 -111.772508 67 35399ft 454kts
01-Nov-19 21:01 37.111239 -111.623712 67 35405ft 456kts
01-Nov-19 21:02 37.152306 -111.473234 67 35412ft 457kts
01-Nov-19 21:03 37.192966 -111.323412 68 35419ft 458kts
01-Nov-19 21:04 37.233482 -111.172122 68 35427ft 459kts
01-Nov-19 21:05 37.273934 -111.020267 67 35443ft 460kts
01-Nov-19 21:06 37.314702 -110.867247 67 35458ft 462kts
01-Nov-19 21:07 37.355159 -110.714472 67 35459ft 463kts
01-Nov-19 21:08 37.395633 -110.560728 67 35460ft 464kts
01-Nov-19 21:09 37.436154 -110.405872 67 35461ft 466kts
01-Nov-19 21:10 37.476128 -110.252251 67 35456ft 468kts
01-Nov-19 21:11 37.516312 -110.096819 67 35461ft 469kts
01-Nov-19 21:12 37.556418 -109.940739 67 35480ft 471kts
01-Nov-19 21:13 37.596707 -109.782929 67 35485ft 472kts
01-Nov-19 21:14 37.636634 -109.625574 67 35486ft 471kts
01-Nov-19 21:15 37.676364 -109.468012 67 35487ft 472kts
01-Nov-19 21:16 37.715548 -109.311651 67 35482ft 474kts
01-Nov-19 21:17 37.755026 -109.153159 68 35474ft 475kts
01-Nov-19 21:18 37.794366 -108.994116 68 35441ft 475kts
01-Nov-19 21:19 37.850361 -108.845806 52 35448ft 466kts
01-Nov-19 21:20 37.918609 -108.706930 52 35471ft 467kts
01-Nov-19 21:21 37.986957 -108.566595 51 35476ft 468kts
01-Nov-19 21:22 38.055220 -108.425849 51 35477ft 467kts
01-Nov-19 21:23 38.121618 -108.288408 52 35475ft 470kts
01-Nov-19 21:24 38.189608 -108.147020 52 35479ft 470kts
01-Nov-19 21:25 38.257458 -108.005314 52 35485ft 470kts
01-Nov-19 21:26 38.325186 -107.863233 52 35487ft 470kts
01-Nov-19 21:27 38.392690 -107.720996 52 35488ft 469kts
01-Nov-19 21:28 38.459966 -107.578284 53 35489ft 469kts
01-Nov-19 21:29 38.524117 -107.433690 53 35490ft 469kts
01-Nov-19 21:30 38.588721 -107.289615 54 35482ft 469kts
01-Nov-19 21:31 38.653298 -107.144888 53 35481ft 469kts
01-Nov-19 21:32 38.717527 -107.000277 53 35483ft 469kts
01-Nov-19 21:33 38.781831 -106.854802 53 35470ft 469kts
01-Nov-19 21:34 38.845953 -106.709074 53 35466ft 469kts
01-Nov-19 21:35 38.911237 -106.565184 52 35464ft 466kts
01-Nov-19 21:36 38.977436 -106.422280 52 35460ft 468kts
01-Nov-19 21:37 39.043318 -106.278285 53 35440ft 483kts
01-Nov-19 21:38 39.110616 -106.129564 53 35294ft 478kts
01-Nov-19 21:39 39.175577 -105.982430 52 32334ft 474kts
01-Nov-19 21:40 39.239310 -105.837738 52 28712ft 449kts
01-Nov-19 21:41 39.299159 -105.701484 52 25712ft 431kts
01-Nov-19 21:42 39.357659 -105.567493 52 23251ft 418kts
01-Nov-19 21:43 39.413680 -105.445743 45 22259ft 363kts
01-Nov-19 21:44 39.468765 -105.342035 46 20231ft 337kts
01-Nov-19 21:45 39.520063 -105.244454 46 18351ft 326kts
01-Nov-19 21:46 39.571063 -105.147110 46 17428ft 328kts
01-Nov-19 21:47 39.622094 -105.049374 46 16997ft 324kts
01-Nov-19 21:48 39.672296 -104.952959 48 15682ft 321kts
01-Nov-19 21:49 39.731399 -104.868460 24 13513ft 306kts
01-Nov-19 21:50 39.804801 -104.840794 356 12108ft 264kts
01-Nov-19 21:52 39.878604 -104.839560 358 9951ft 264kts
01-Nov-19 21:53 39.951651 -104.839261 359 8087ft 256kts
01-Nov-19 21:54 40.020674 -104.839541 359 7793ft 229kts
01-Nov-19 21:55 40.049383 -104.793969 125 7067ft 207kts
01-Nov-19 21:56 40.019117 -104.737907 121 7033ft 181kts
01-Nov-19 21:57 39.989548 -104.687003 170 7020ft 164kts
01-Nov-19 21:58 39.946300 -104.695601 179 6352ft 150kts
01-Nov-19 21:59 39.905358 -104.695976 179 5562ft 149kts
01-Nov-19 22:00 39.879485 -104.696241 179 5331ft 33kts
01-Nov-19 22:01 39.875559 -104.694554 155 5329ft 0kts
01-Nov-19 22:02 39.874873 -104.694224 172 5329ft 7kts
01-Nov-19 22:03 39.869826 -104.694223 181 5329ft 19kts
01-Nov-19 22:04 39.865026 -104.694136 152 5329ft 14kts
01-Nov-19 22:05 39.861679 -104.691678 150 5340ft 11kts
01-Nov-19 22:06 39.860346 -104.689110 90 5354ft 8kts
01-Nov-19 22:07 39.860333 -104.686420 90 5372ft 8kts
01-Nov-19 22:08 39.860694 -104.680896 86 5376ft 11kts
01-Nov-19 22:09 39.861339 -104.677797 90 5376ft 8kts
01-Nov-19 22:10 39.861896 -104.676449 2 5375ft 1kts
01-Nov-19 22:11 39.862514 -104.676298 12 5375ft 0kts

Navigation Log

Ident Type
Flight plan parsing failed, navigation log unavailable